Time;durP1;ratioP1;P1;durP2;ratioP2;P2;SDS_P1;SDS_P2;PMS_P1;PMS_P2;Temp;Humidity;BMP_temperature;BMP_pressure;BME280_temperature;BME280_humidity;BME280_pressure;Samples;Min_cycle;Max_cycle;Signal;HPM_P1;HPM_P2
2021/09/20 00:01:09;;;;;;;6.30;5.17;;;11.60;99.90;;;;;;4996486;28;20190;-77
2021/09/20 00:03:35;;;;;;;10.03;5.90;;;11.60;99.90;;;;;;4996574;28;20213;-77
2021/09/20 00:06:00;;;;;;;8.87;5.27;;;11.60;99.90;;;;;;5012581;28;20176;-77
2021/09/20 00:08:26;;;;;;;8.17;5.77;;;11.60;99.90;;;;;;4995958;28;20281;-78
2021/09/20 00:10:51;;;;;;;7.70;5.83;;;11.60;99.90;;;;;;5011704;28;20283;-77
2021/09/20 00:13:17;;;;;;;7.37;5.70;;;11.50;99.90;;;;;;5011826;28;20678;-77
2021/09/20 00:15:43;;;;;;;7.53;5.87;;;11.50;99.90;;;;;;4995627;28;20179;-77
2021/09/20 00:18:08;;;;;;;8.70;6.30;;;11.40;99.90;;;;;;5012126;28;20179;-77
2021/09/20 00:20:34;;;;;;;8.43;5.73;;;11.40;99.90;;;;;;4995395;28;20259;-77
2021/09/20 00:22:59;;;;;;;7.70;5.63;;;11.40;99.90;;;;;;5012113;28;20182;-77
2021/09/20 00:25:25;;;;;;;8.20;5.97;;;11.50;99.90;;;;;;5011931;28;20207;-77
2021/09/20 00:27:52;;;;;;;8.37;5.63;;;11.40;99.90;;;;;;4996405;28;20187;-77
2021/09/20 00:30:17;;;;;;;8.33;5.77;;;11.30;99.90;;;;;;5015284;28;20175;-77
2021/09/20 00:32:43;;;;;;;8.50;5.97;;;11.30;99.90;;;;;;5015170;28;20689;-77
2021/09/20 00:35:08;;;;;;;7.87;6.70;;;11.30;99.90;;;;;;5031488;28;20589;-77
2021/09/20 00:37:34;;;;;;;7.30;5.80;;;11.20;99.90;;;;;;4998672;28;20647;-77
2021/09/20 00:39:59;;;;;;;7.10;5.50;;;11.20;99.90;;;;;;4998203;28;20303;-77
2021/09/20 00:42:25;;;;;;;6.97;5.13;;;11.20;99.90;;;;;;4998649;28;20179;-77
2021/09/20 00:44:51;;;;;;;7.70;6.10;;;11.20;99.90;;;;;;4998734;28;20287;-77
2021/09/20 00:47:16;;;;;;;6.57;5.87;;;11.20;99.90;;;;;;4998806;28;20185;-78
2021/09/20 00:49:42;;;;;;;8.63;5.67;;;11.20;99.90;;;;;;4998536;28;20276;-77
2021/09/20 00:52:08;;;;;;;7.57;6.03;;;11.30;99.90;;;;;;4998436;28;20187;-77
2021/09/20 00:54:34;;;;;;;6.97;5.80;;;11.20;99.90;;;;;;4998143;28;20222;-77
2021/09/20 00:57:00;;;;;;;6.57;5.60;;;11.20;99.90;;;;;;4998291;28;20519;-77
2021/09/20 00:59:25;;;;;;;7.40;5.87;;;11.10;99.90;;;;;;4998014;28;20199;-77
2021/09/20 01:01:51;;;;;;;7.60;6.00;;;11.20;99.90;;;;;;5014902;28;20178;-77
2021/09/20 01:04:16;;;;;;;6.97;5.73;;;11.00;99.90;;;;;;5014304;28;20244;-77
2021/09/20 01:06:42;;;;;;;7.87;5.83;;;11.00;99.90;;;;;;4997915;28;20190;-77
2021/09/20 01:09:07;;;;;;;6.87;6.07;;;10.90;99.90;;;;;;5014307;28;20175;-77
2021/09/20 01:11:33;;;;;;;6.80;5.77;;;10.90;99.90;;;;;;4997951;28;20175;-77
2021/09/20 01:13:58;;;;;;;7.33;6.03;;;10.90;99.90;;;;;;4997635;28;20222;-77
2021/09/20 01:16:24;;;;;;;7.27;5.90;;;10.90;99.90;;;;;;4998001;28;20202;-77
2021/09/20 01:18:49;;;;;;;7.33;5.77;;;10.90;99.90;;;;;;5013732;28;20286;-77
2021/09/20 01:21:15;;;;;;;6.83;5.50;;;10.80;99.90;;;;;;4997870;28;20552;-77
2021/09/20 01:23:42;;;;;;;7.97;6.13;;;10.80;99.90;;;;;;4997353;28;20821;-77
2021/09/20 01:26:09;;;;;;;9.17;6.40;;;10.80;99.90;;;;;;4997715;28;20678;-77
2021/09/20 01:28:34;;;;;;;8.20;6.30;;;10.70;99.90;;;;;;4997682;28;20608;-77
2021/09/20 01:31:00;;;;;;;7.07;6.00;;;10.70;99.90;;;;;;4997618;28;20187;-77
2021/09/20 01:33:25;;;;;;;8.77;6.40;;;10.70;99.90;;;;;;5013643;28;20690;-77
2021/09/20 01:35:51;;;;;;;8.47;6.20;;;10.80;99.90;;;;;;5013837;28;20659;-77
2021/09/20 01:38:16;;;;;;;7.77;6.27;;;10.80;99.90;;;;;;5030223;28;20171;-77
2021/09/20 01:40:42;;;;;;;9.50;6.33;;;10.70;99.90;;;;;;4996124;28;20171;-77
2021/09/20 01:43:08;;;;;;;9.10;6.50;;;10.70;99.90;;;;;;5013761;28;20225;-77
2021/09/20 01:45:33;;;;;;;9.27;7.07;;;10.60;99.90;;;;;;5014027;28;20186;-78
2021/09/20 01:47:59;;;;;;;8.13;6.77;;;10.60;99.90;;;;;;4997552;28;20277;-77
2021/09/20 01:50:24;;;;;;;10.03;6.93;;;10.60;99.90;;;;;;4997506;28;20180;-77
2021/09/20 01:52:50;;;;;;;8.10;6.50;;;10.60;99.90;;;;;;5013827;28;20184;-77
2021/09/20 01:55:15;;;;;;;8.47;6.73;;;10.60;99.90;;;;;;4997102;28;20245;-77
2021/09/20 01:57:41;;;;;;;7.47;6.40;;;10.70;99.90;;;;;;4997014;28;20175;-77
2021/09/20 02:00:08;;;;;;;7.80;6.57;;;10.70;99.90;;;;;;5013099;28;20179;-77
2021/09/20 02:02:34;;;;;;;7.63;6.80;;;10.60;99.90;;;;;;5013384;28;20185;-77
2021/09/20 02:04:59;;;;;;;8.87;6.97;;;10.60;99.90;;;;;;5030031;28;20194;-78
2021/09/20 02:07:25;;;;;;;10.27;6.73;;;10.60;99.90;;;;;;4996899;28;20187;-77
2021/09/20 02:09:50;;;;;;;7.87;6.53;;;10.70;99.90;;;;;;4996646;28;20233;-77
2021/09/20 02:12:16;;;;;;;9.87;6.50;;;10.60;99.90;;;;;;4996933;28;20186;-77
2021/09/20 02:14:42;;;;;;;8.90;7.33;;;10.70;99.90;;;;;;4996358;28;20227;-77
2021/09/20 02:17:07;;;;;;;9.03;6.30;;;10.60;99.90;;;;;;4996903;28;20183;-77
2021/09/20 02:19:33;;;;;;;9.13;7.17;;;10.60;99.90;;;;;;4996170;28;20179;-77
2021/09/20 02:21:58;;;;;;;8.57;7.03;;;10.50;99.90;;;;;;4996880;28;20361;-77
2021/09/20 02:24:24;;;;;;;9.53;6.67;;;10.60;99.90;;;;;;5012733;28;20215;-77
2021/09/20 02:26:50;;;;;;;9.37;6.73;;;10.60;99.90;;;;;;5031346;28;20186;-77
2021/09/20 02:29:15;;;;;;;8.97;6.93;;;10.60;99.90;;;;;;5003837;28;20555;-77
2021/09/20 02:31:41;;;;;;;10.90;7.30;;;10.60;99.90;;;;;;5036933;28;20186;-78
2021/09/20 02:34:06;;;;;;;10.27;6.73;;;10.60;99.90;;;;;;5003334;28;20689;-77
2021/09/20 02:36:32;;;;;;;9.50;7.67;;;10.50;99.90;;;;;;5019751;28;20868;-77
2021/09/20 02:38:58;;;;;;;11.43;7.13;;;10.60;99.90;;;;;;5003224;28;20185;-77
2021/09/20 02:41:23;;;;;;;8.23;6.97;;;10.60;99.90;;;;;;5019897;28;20261;-77
2021/09/20 02:43:49;;;;;;;8.87;6.60;;;10.60;99.90;;;;;;5004193;28;20720;-77
2021/09/20 02:46:15;;;;;;;10.00;7.40;;;10.60;99.90;;;;;;4997004;28;20860;-77
2021/09/20 02:48:43;;;;;;;9.83;7.30;;;10.50;99.90;;;;;;4996188;28;20204;-77
2021/09/20 02:51:09;;;;;;;10.50;7.50;;;10.50;99.90;;;;;;5011603;28;20189;-77
2021/09/20 02:53:35;;;;;;;11.07;7.40;;;10.40;99.90;;;;;;5011867;28;20272;-77
2021/09/20 02:56:00;;;;;;;9.77;6.90;;;10.50;99.90;;;;;;4995803;28;20186;-77
2021/09/20 02:58:26;;;;;;;9.23;6.87;;;10.50;99.90;;;;;;4995953;28;20177;-77
2021/09/20 03:00:51;;;;;;;11.20;7.27;;;10.50;99.90;;;;;;5011793;28;20174;-77
2021/09/20 03:03:17;;;;;;;8.70;6.97;;;10.40;99.90;;;;;;5028197;28;20183;-77
2021/09/20 03:05:43;;;;;;;9.23;7.30;;;10.50;99.90;;;;;;4995644;28;20675;-77
2021/09/20 03:08:08;;;;;;;11.20;7.03;;;10.40;99.90;;;;;;5028511;28;20182;-77
2021/09/20 03:10:34;;;;;;;10.17;6.83;;;10.40;99.90;;;;;;5012777;28;20653;-77
2021/09/20 03:13:00;;;;;;;8.70;6.63;;;10.40;99.90;;;;;;4995763;28;20202;-77
2021/09/20 03:15:25;;;;;;;9.63;7.17;;;10.40;99.90;;;;;;4995644;28;20214;-77
2021/09/20 03:17:51;;;;;;;7.47;6.63;;;10.40;99.90;;;;;;4996275;28;20213;-77
2021/09/20 03:20:16;;;;;;;9.83;7.20;;;10.40;99.90;;;;;;4995914;28;20185;-77
2021/09/20 03:22:42;;;;;;;9.10;7.30;;;10.40;99.90;;;;;;5012600;28;20209;-77
2021/09/20 03:25:08;;;;;;;8.80;6.37;;;10.40;99.90;;;;;;5012446;28;20217;-77
2021/09/20 03:27:34;;;;;;;8.40;6.97;;;10.30;99.90;;;;;;4996080;28;20186;-77
2021/09/20 03:30:00;;;;;;;8.07;6.80;;;10.30;99.90;;;;;;5012291;28;20193;-77
2021/09/20 03:32:25;;;;;;;9.23;6.50;;;10.30;99.90;;;;;;5012911;28;20189;-77
2021/09/20 03:34:51;;;;;;;8.33;6.77;;;10.30;99.90;;;;;;4995487;28;20222;-77
2021/09/20 03:37:16;;;;;;;10.83;6.33;;;10.30;99.90;;;;;;4995439;28;20214;-77
2021/09/20 03:39:42;;;;;;;9.60;6.70;;;10.30;99.90;;;;;;4995415;28;20174;-77
2021/09/20 03:42:07;;;;;;;8.53;6.47;;;10.30;99.90;;;;;;5011714;28;20184;-77
2021/09/20 03:44:33;;;;;;;9.13;6.83;;;10.30;99.90;;;;;;5028009;28;20206;-78
2021/09/20 03:46:59;;;;;;;10.70;6.30;;;10.30;99.90;;;;;;4995281;28;20708;-77
2021/09/20 03:49:24;;;;;;;8.40;6.87;;;10.20;99.90;;;;;;4995056;28;20190;-77
2021/09/20 03:51:50;;;;;;;7.77;6.40;;;10.30;99.90;;;;;;5027946;28;20584;-78
2021/09/20 03:54:15;;;;;;;9.93;6.63;;;10.30;99.90;;;;;;4994851;28;20249;-78
2021/09/20 03:56:41;;;;;;;8.87;6.40;;;10.20;99.90;;;;;;4995372;28;20187;-77
2021/09/20 03:59:06;;;;;;;8.50;6.70;;;10.20;99.90;;;;;;4999748;28;20181;-78
2021/09/20 04:01:32;;;;;;;8.33;6.17;;;10.10;99.90;;;;;;5005996;28;20210;-78
2021/09/20 04:03:58;;;;;;;8.53;6.33;;;10.10;99.90;;;;;;5009125;28;20199;-78
2021/09/20 04:06:24;;;;;;;10.07;6.00;;;10.10;99.90;;;;;;5009274;28;20182;-78
2021/09/20 04:08:49;;;;;;;9.33;6.83;;;10.10;99.90;;;;;;5009220;28;20281;-78
2021/09/20 04:11:15;;;;;;;8.67;6.50;;;10.10;99.90;;;;;;5043096;28;20179;-78
2021/09/20 04:13:41;;;;;;;9.83;6.70;;;10.00;99.90;;;;;;5009533;28;20276;-78
2021/09/20 04:16:06;;;;;;;8.23;6.70;;;10.00;99.90;;;;;;5025790;28;20193;-78
2021/09/20 04:18:32;;;;;;;10.77;6.40;;;10.10;99.90;;;;;;5009345;28;20572;-79
2021/09/20 04:20:57;;;;;;;8.23;6.60;;;9.90;99.90;;;;;;5009674;28;20190;-78
2021/09/20 04:23:24;;;;;;;10.10;6.90;;;10.00;99.90;;;;;;5010149;28;20177;-78
2021/09/20 04:25:50;;;;;;;7.67;6.40;;;9.90;99.90;;;;;;5009335;28;20178;-78
2021/09/20 04:28:16;;;;;;;8.73;6.23;;;9.90;99.90;;;;;;5009241;28;20677;-79
2021/09/20 04:30:43;;;;;;;9.47;6.97;;;9.90;99.90;;;;;;5025945;28;20177;-79
2021/09/20 04:33:13;;;;;;;9.87;6.83;;;10.00;99.90;;;;;;5025109;28;20214;-79
2021/09/20 04:35:39;;;;;;;8.70;6.80;;;10.00;99.90;;;;;;5009101;28;20179;-79
2021/09/20 04:38:05;;;;;;;9.10;6.30;;;9.90;99.90;;;;;;5009571;28;20202;-79
2021/09/20 04:40:30;;;;;;;12.43;7.23;;;9.90;99.90;;;;;;5008575;28;20182;-78
2021/09/20 04:42:56;;;;;;;8.57;6.13;;;9.80;99.90;;;;;;5007262;28;20197;-79
2021/09/20 04:45:22;;;;;;;9.77;7.20;;;9.90;99.90;;;;;;5007070;28;20677;-79
2021/09/20 04:47:47;;;;;;;8.60;6.80;;;9.80;99.90;;;;;;5040812;28;20658;-79
2021/09/20 04:50:13;;;;;;;10.97;7.30;;;9.80;99.90;;;;;;4996112;28;20254;-79
2021/09/20 04:52:38;;;;;;;13.37;7.60;;;9.80;99.90;;;;;;5003446;28;20272;-79
2021/09/20 04:55:04;;;;;;;8.53;6.90;;;9.70;99.90;;;;;;4991785;28;20226;-77
2021/09/20 04:57:30;;;;;;;8.23;6.57;;;9.70;99.90;;;;;;4999630;28;20238;-80
2021/09/20 04:59:56;;;;;;;9.80;6.83;;;9.70;99.90;;;;;;4995647;28;20201;-76
2021/09/20 05:02:21;;;;;;;8.33;6.70;;;9.60;99.90;;;;;;5014385;28;20250;-77
2021/09/20 05:04:47;;;;;;;9.20;6.53;;;9.60;99.90;;;;;;4997598;28;20573;-77
2021/09/20 05:07:12;;;;;;;7.87;6.37;;;9.60;99.90;;;;;;4998337;28;20698;-77
2021/09/20 05:09:38;;;;;;;9.43;6.93;;;9.60;99.90;;;;;;5015330;28;20650;-76
2021/09/20 05:12:03;;;;;;;8.80;6.80;;;9.50;99.90;;;;;;4997312;28;20637;-76
2021/09/20 05:14:29;;;;;;;9.37;7.10;;;9.40;99.90;;;;;;4997494;28;20340;-77
2021/09/20 05:16:58;;;;;;;8.03;6.77;;;9.40;99.90;;;;;;5015473;28;20186;-77
2021/09/20 05:19:23;;;;;;;7.93;7.07;;;9.40;99.90;;;;;;4999028;28;20170;-77
2021/09/20 05:21:49;;;;;;;10.73;7.33;;;9.40;99.90;;;;;;4982380;28;20639;-77
2021/09/20 05:24:14;;;;;;;9.13;7.60;;;9.30;99.90;;;;;;4982029;28;20295;-79
2021/09/20 05:26:40;;;;;;;11.33;7.70;;;9.30;99.90;;;;;;4983213;28;20185;-77
2021/09/20 05:29:06;;;;;;;9.13;7.60;;;9.40;99.90;;;;;;5000312;28;20347;-75
2021/09/20 05:31:31;;;;;;;9.20;7.63;;;9.40;99.90;;;;;;5002697;28;20174;-79
2021/09/20 05:33:57;;;;;;;14.53;8.57;;;9.40;99.90;;;;;;5004244;28;20219;-77
2021/09/20 05:36:23;;;;;;;11.23;7.63;;;9.40;99.90;;;;;;5016997;28;20187;-75
2021/09/20 05:38:48;;;;;;;10.77;7.77;;;9.50;99.90;;;;;;4999348;28;20210;-76
2021/09/20 05:41:14;;;;;;;10.33;7.70;;;9.40;99.90;;;;;;5000343;28;20181;-76
2021/09/20 05:43:39;;;;;;;10.70;7.73;;;9.40;99.90;;;;;;5015043;28;20292;-76
2021/09/20 05:46:06;;;;;;;10.33;8.00;;;9.40;99.90;;;;;;4999202;28;20280;-75
2021/09/20 05:48:31;;;;;;;10.83;8.40;;;9.40;99.90;;;;;;4999706;28;20191;-77
2021/09/20 05:50:57;;;;;;;12.27;8.07;;;9.40;99.90;;;;;;5015111;28;20257;-75
2021/09/20 05:53:22;;;;;;;9.47;8.07;;;9.40;99.90;;;;;;5015413;28;20594;-76
2021/09/20 05:55:48;;;;;;;10.13;8.23;;;9.40;99.90;;;;;;4999360;28;20181;-75
2021/09/20 05:58:13;;;;;;;9.90;8.07;;;9.40;99.90;;;;;;5015376;28;20565;-79
2021/09/20 06:00:39;;;;;;;12.80;9.17;;;9.50;99.90;;;;;;4998620;28;20540;-75
2021/09/20 06:03:04;;;;;;;10.27;7.77;;;9.80;99.90;;;;;;5015305;28;20195;-75
2021/09/20 06:05:38;;;;;;;9.80;7.90;;;9.80;99.90;;;;;;5002363;28;20724;-75
2021/09/20 06:08:06;;;;;;;10.27;7.40;;;9.90;99.90;;;;;;5005979;28;20186;-74
2021/09/20 06:11:03;;;;;;;13.53;8.23;;;9.90;99.90;;;;;;5005557;28;20187;-74
2021/09/20 06:13:44;;;;;;;10.03;7.77;;;9.80;99.90;;;;;;5023075;28;20243;-78
2021/09/20 06:16:09;;;;;;;10.30;7.40;;;9.90;99.90;;;;;;5000762;28;20289;-75
2021/09/20 06:18:35;;;;;;;12.03;8.40;;;9.90;99.90;;;;;;5012194;28;20692;-77
2021/09/20 06:21:01;;;;;;;9.73;8.13;;;10.10;99.90;;;;;;5012195;28;20646;-75
2021/09/20 06:23:26;;;;;;;12.00;8.27;;;10.10;99.90;;;;;;4995881;28;20187;-75
2021/09/20 06:25:52;;;;;;;9.93;8.37;;;10.20;99.90;;;;;;5011722;28;20178;-76
2021/09/20 06:28:17;;;;;;;10.93;8.17;;;10.60;99.90;;;;;;5012280;28;20194;-75
2021/09/20 06:30:43;;;;;;;10.23;7.33;;;11.50;99.90;;;;;;5012053;28;20176;-76
2021/09/20 06:33:09;;;;;;;9.50;7.27;;;12.10;99.90;;;;;;5013882;28;20187;-76
2021/09/20 06:35:35;;;;;;;9.67;6.47;;;13.00;99.90;;;;;;5013717;28;20577;-75
2021/09/20 06:38:00;;;;;;;10.23;6.27;;;14.00;99.90;;;;;;5012156;28;20171;-77
2021/09/20 06:40:26;;;;;;;9.30;6.47;;;15.30;99.90;;;;;;5012244;28;20182;-75
2021/09/20 06:42:52;;;;;;;8.03;6.43;;;15.50;99.90;;;;;;5014047;28;20620;-72
2021/09/20 06:45:18;;;;;;;9.47;6.60;;;14.70;99.90;;;;;;4996675;28;20557;-75
2021/09/20 06:47:44;;;;;;;8.50;7.03;;;13.50;99.90;;;;;;5016572;28;20561;-75
2021/09/20 06:50:10;;;;;;;9.63;7.67;;;12.70;99.90;;;;;;4999341;28;20210;-74
2021/09/20 06:52:35;;;;;;;9.20;7.70;;;12.10;99.90;;;;;;4999029;28;20187;-74
2021/09/20 06:55:01;;;;;;;9.33;7.73;;;11.90;99.90;;;;;;4999352;28;20223;-74
2021/09/20 06:57:26;;;;;;;11.33;7.33;;;12.00;99.90;;;;;;4999129;28;20179;-74
2021/09/20 06:59:52;;;;;;;9.83;7.10;;;12.10;99.90;;;;;;4999333;28;20186;-74
2021/09/20 07:02:17;;;;;;;11.23;7.37;;;12.40;99.90;;;;;;4998116;28;20183;-75
2021/09/20 07:04:43;;;;;;;9.93;7.40;;;12.50;99.90;;;;;;5011389;28;20670;-74
2021/09/20 07:07:09;;;;;;;12.07;7.37;;;12.60;99.90;;;;;;4995074;28;20670;-74
2021/09/20 07:09:34;;;;;;;10.67;6.77;;;12.60;99.90;;;;;;5011277;28;20674;-75
2021/09/20 07:12:01;;;;;;;8.63;6.80;;;12.80;99.90;;;;;;5011496;28;20180;-74
2021/09/20 07:14:26;;;;;;;9.73;6.40;;;12.80;99.90;;;;;;5010965;28;20212;-74
2021/09/20 07:16:52;;;;;;;9.43;6.33;;;13.00;99.90;;;;;;5011403;28;20219;-75
2021/09/20 07:19:17;;;;;;;12.53;6.87;;;13.20;99.90;;;;;;4994764;28;20593;-74
2021/09/20 07:21:43;;;;;;;7.70;6.17;;;13.20;99.90;;;;;;5011271;28;20636;-74
2021/09/20 07:24:09;;;;;;;8.67;6.60;;;13.30;99.90;;;;;;5011148;28;20278;-75
2021/09/20 07:26:35;;;;;;;7.00;5.90;;;13.40;99.90;;;;;;5011160;28;20614;-75
2021/09/20 07:29:00;;;;;;;9.23;6.70;;;13.60;99.90;;;;;;5010944;28;20665;-74
2021/09/20 07:31:26;;;;;;;12.73;7.00;;;13.80;99.90;;;;;;4994935;28;20183;-74
2021/09/20 07:33:51;;;;;;;7.83;6.33;;;13.90;99.90;;;;;;4994621;28;20586;-74
2021/09/20 07:36:17;;;;;;;10.00;6.73;;;14.00;99.90;;;;;;5011135;28;20245;-75
2021/09/20 07:38:43;;;;;;;8.13;6.47;;;14.10;99.90;;;;;;5013540;28;20582;-74
2021/09/20 07:41:08;;;;;;;8.97;6.40;;;14.20;99.90;;;;;;5014948;28;20179;-75
2021/09/20 07:43:34;;;;;;;8.67;6.30;;;14.30;99.90;;;;;;5015151;28;20230;-74
2021/09/20 07:45:59;;;;;;;7.60;6.57;;;14.40;99.90;;;;;;4998693;28;20228;-75
2021/09/20 07:48:27;;;;;;;9.90;6.70;;;14.70;99.90;;;;;;4998709;28;20179;-74
2021/09/20 07:50:52;;;;;;;8.80;6.87;;;15.00;99.90;;;;;;5014982;28;20186;-74
2021/09/20 07:53:18;;;;;;;9.07;6.63;;;15.00;99.90;;;;;;5014566;28;20199;-74
2021/09/20 07:55:44;;;;;;;7.80;6.23;;;15.00;99.90;;;;;;5015016;28;20227;-74
2021/09/20 07:58:10;;;;;;;8.03;6.60;;;15.10;99.90;;;;;;5014960;28;20195;-75
2021/09/20 08:00:37;;;;;;;7.97;6.07;;;15.20;99.90;;;;;;5014641;28;20171;-75
2021/09/20 08:03:06;;;;;;;8.37;6.07;;;15.00;99.90;;;;;;5014808;28;20267;-75
2021/09/20 08:05:32;;;;;;;7.40;6.13;;;15.00;99.90;;;;;;5014724;28;20187;-75
2021/09/20 08:07:58;;;;;;;9.60;6.07;;;15.00;99.90;;;;;;4998271;28;20234;-75
2021/09/20 08:10:23;;;;;;;6.77;5.87;;;14.90;99.90;;;;;;5014506;28;20176;-75
2021/09/20 08:12:49;;;;;;;10.73;6.27;;;14.90;99.90;;;;;;5014546;28;20179;-75
2021/09/20 08:15:14;;;;;;;8.03;6.37;;;14.90;99.90;;;;;;5014354;28;20239;-75
2021/09/20 08:17:40;;;;;;;9.00;5.90;;;14.70;99.90;;;;;;5014200;28;20175;-75
2021/09/20 08:20:06;;;;;;;9.63;6.23;;;14.70;99.90;;;;;;5014047;28;20176;-75
2021/09/20 08:22:32;;;;;;;8.77;6.37;;;14.60;99.90;;;;;;4997923;28;20177;-75
2021/09/20 08:24:58;;;;;;;8.40;5.57;;;14.60;99.90;;;;;;5014238;28;20195;-75
2021/09/20 08:27:24;;;;;;;8.03;5.50;;;14.70;99.90;;;;;;5014264;28;20654;-75
2021/09/20 08:29:50;;;;;;;7.43;4.93;;;14.80;99.90;;;;;;5013908;28;20168;-75
2021/09/20 08:32:16;;;;;;;7.03;4.57;;;15.00;99.90;;;;;;5014103;28;20179;-75
2021/09/20 08:34:42;;;;;;;5.93;4.20;;;15.10;99.90;;;;;;4997491;28;20212;-75
2021/09/20 08:37:07;;;;;;;6.43;4.37;;;15.20;99.90;;;;;;5013953;28;20624;-75
2021/09/20 08:39:33;;;;;;;5.83;4.43;;;15.40;99.90;;;;;;5013865;28;20551;-75
2021/09/20 08:41:58;;;;;;;7.47;4.50;;;15.70;99.90;;;;;;5014023;28;20274;-75
2021/09/20 08:44:24;;;;;;;6.63;4.30;;;15.90;99.90;;;;;;5013994;28;20196;-75
2021/09/20 08:46:51;;;;;;;7.00;3.90;;;15.90;99.90;;;;;;5013968;28;20650;-75
2021/09/20 08:49:19;;;;;;;5.70;4.20;;;15.80;99.90;;;;;;5012974;28;20190;-75
2021/09/20 08:51:44;;;;;;;4.37;3.60;;;15.70;99.90;;;;;;5013934;28;20202;-75
2021/09/20 08:54:10;;;;;;;5.77;3.70;;;15.50;99.90;;;;;;5013539;28;20211;-75
2021/09/20 08:56:36;;;;;;;4.43;3.60;;;15.50;99.90;;;;;;5013838;28;20175;-75
2021/09/20 08:59:01;;;;;;;5.10;3.33;;;15.40;99.90;;;;;;5014685;28;20254;-75
2021/09/20 09:01:27;;;;;;;4.93;3.80;;;15.30;99.90;;;;;;5013765;28;20172;-75
2021/09/20 09:03:54;;;;;;;6.07;3.63;;;15.40;99.90;;;;;;5013667;28;20647;-76
2021/09/20 09:06:29;;;;;;;4.50;3.07;;;15.40;99.90;;;;;;5013500;28;20176;-76
2021/09/20 09:08:55;;;;;;;4.77;3.17;;;15.30;99.90;;;;;;4996962;28;20206;-76
2021/09/20 09:11:20;;;;;;;4.97;3.20;;;15.20;99.90;;;;;;5013458;28;20202;-76
2021/09/20 09:13:46;;;;;;;4.53;3.30;;;15.20;99.90;;;;;;5013328;28;20586;-76
2021/09/20 09:16:16;;;;;;;4.80;3.43;;;15.20;99.90;;;;;;5013378;28;20190;-76
2021/09/20 09:19:00;;;;;;;5.47;3.10;;;15.20;99.90;;;;;;5013313;28;20192;-76
2021/09/20 09:21:50;;;;;;;4.00;2.87;;;15.10;99.90;;;;;;5014424;28;20194;-76
2021/09/20 09:24:17;;;;;;;4.63;3.00;;;15.20;99.90;;;;;;5012965;28;20222;-76
2021/09/20 09:26:57;;;;;;;4.30;2.33;;;15.20;99.90;;;;;;5013022;28;20174;-76
2021/09/20 09:29:22;;;;;;;2.90;2.50;;;15.30;99.90;;;;;;5012870;28;20171;-76
2021/09/20 09:31:56;;;;;;;3.43;2.43;;;15.30;99.90;;;;;;5013217;28;20771;-76
2021/09/20 09:34:26;;;;;;;3.63;2.10;;;15.40;99.90;;;;;;5012866;28;20239;-76
2021/09/20 09:36:54;;;;;;;4.57;2.60;;;15.50;99.90;;;;;;5013203;28;20199;-75
2021/09/20 09:39:29;;;;;;;4.10;2.13;;;15.50;99.90;;;;;;5012791;28;20175;-76
2021/09/20 09:41:55;;;;;;;3.03;2.10;;;15.70;99.90;;;;;;5014161;28;20171;-76
2021/09/20 09:44:29;;;;;;;3.80;2.27;;;15.80;99.90;;;;;;5013140;28;20217;-76
2021/09/20 09:46:54;;;;;;;3.97;2.40;;;16.00;99.90;;;;;;5013014;28;20160;-76
2021/09/20 09:49:21;;;;;;;2.83;2.50;;;16.00;99.90;;;;;;5012807;28;20547;-76
2021/09/20 09:52:02;;;;;;;5.63;2.40;;;16.00;99.90;;;;;;5012740;28;20176;-76
2021/09/20 09:54:33;;;;;;;5.23;2.53;;;16.20;99.90;;;;;;5013692;28;20694;-76
2021/09/20 09:57:19;;;;;;;4.07;2.83;;;16.30;99.90;;;;;;5012728;28;20172;-75
2021/09/20 09:59:54;;;;;;;3.07;2.40;;;16.40;99.90;;;;;;4996143;28;20686;-75
2021/09/20 10:02:30;;;;;;;4.90;2.47;;;16.30;99.90;;;;;;5012349;28;20225;-75
2021/09/20 10:05:00;;;;;;;4.43;2.40;;;16.20;99.90;;;;;;4996226;28;20226;-75
2021/09/20 10:07:37;;;;;;;3.57;2.40;;;16.20;99.90;;;;;;4996131;28;20183;-75
2021/09/20 10:10:06;;;;;;;4.87;2.43;;;16.20;99.90;;;;;;5012219;28;20224;-75
2021/09/20 10:12:31;;;;;;;3.20;2.40;;;16.20;99.90;;;;;;4995919;28;20188;-75
2021/09/20 10:14:59;;;;;;;3.53;2.30;;;16.20;99.90;;;;;;4995650;28;20281;-75
2021/09/20 10:17:27;;;;;;;5.70;2.30;;;16.20;99.90;;;;;;4995832;28;20183;-75
2021/09/20 10:19:53;;;;;;;2.80;2.10;;;16.20;99.90;;;;;;5011901;28;20612;-75
2021/09/20 10:22:18;;;;;;;2.73;2.10;;;16.20;99.90;;;;;;4996730;28;20271;-75
2021/09/20 10:24:45;;;;;;;3.87;2.00;;;16.20;99.90;;;;;;4995584;28;20213;-75
2021/09/20 10:27:12;;;;;;;3.30;1.70;;;16.20;99.90;;;;;;4995719;28;20182;-75
2021/09/20 10:29:39;;;;;;;4.70;2.97;;;16.20;99.90;;;;;;4995582;28;20214;-75
2021/09/20 10:32:05;;;;;;;3.63;2.20;;;16.10;99.90;;;;;;4995691;28;20180;-75
2021/09/20 10:34:30;;;;;;;2.57;1.90;;;16.10;99.90;;;;;;5012047;28;20262;-75
2021/09/20 10:37:13;;;;;;;3.23;2.13;;;16.00;99.90;;;;;;4995596;28;20616;-74
2021/09/20 10:39:44;;;;;;;2.13;1.80;;;15.80;99.90;;;;;;4995249;28;20187;-75
2021/09/20 10:42:11;;;;;;;3.07;1.83;;;15.80;99.90;;;;;;5013056;28;20172;-75
2021/09/20 10:44:38;;;;;;;2.87;2.00;;;15.80;99.90;;;;;;5011945;28;20734;-74
2021/09/20 10:47:14;;;;;;;2.93;2.10;;;15.90;99.90;;;;;;4995309;28;20262;-75
2021/09/20 10:49:50;;;;;;;4.20;1.73;;;15.80;99.90;;;;;;5011695;28;20612;-74
2021/09/20 10:52:15;;;;;;;3.17;1.73;;;15.70;99.90;;;;;;5011653;28;20262;-74
2021/09/20 10:55:00;;;;;;;3.10;1.60;;;15.70;99.90;;;;;;5011465;28;20338;-75
2021/09/20 10:57:26;;;;;;;1.90;1.63;;;15.60;99.90;;;;;;5011766;28;20222;-75
2021/09/20 10:59:51;;;;;;;1.70;1.30;;;15.50;99.90;;;;;;5011739;28;20179;-75
2021/09/20 11:02:18;;;;;;;1.90;1.40;;;15.50;99.90;;;;;;5011742;28;20176;-74
2021/09/20 11:04:43;;;;;;;2.03;1.40;;;15.50;99.90;;;;;;5011495;28;20191;-74
2021/09/20 11:07:15;;;;;;;2.23;1.47;;;15.50;99.90;;;;;;5011571;28;20175;-74
2021/09/20 11:09:49;;;;;;;2.07;1.40;;;15.50;99.90;;;;;;5011447;28;20596;-74
2021/09/20 11:12:20;;;;;;;1.40;1.30;;;15.50;99.90;;;;;;5011113;28;20167;-75
2021/09/20 11:15:06;;;;;;;2.00;1.73;;;15.60;99.90;;;;;;5011186;28;20232;-75
2021/09/20 11:17:32;;;;;;;2.07;1.47;;;15.60;99.90;;;;;;5011446;28;20243;-75
2021/09/20 11:19:59;;;;;;;2.20;1.40;;;15.70;99.90;;;;;;5011999;28;20250;-75
2021/09/20 11:22:27;;;;;;;4.57;1.70;;;15.80;99.90;;;;;;4994724;28;20172;-75
2021/09/20 11:25:03;;;;;;;2.03;1.63;;;15.90;99.90;;;;;;5011031;28;20222;-75
2021/09/20 11:27:34;;;;;;;2.10;1.27;;;16.00;99.90;;;;;;5012407;28;20175;-75
2021/09/20 11:30:12;;;;;;;3.43;1.53;;;16.00;99.90;;;;;;5014079;28;20250;-75
2021/09/20 11:32:48;;;;;;;2.57;1.40;;;15.90;99.90;;;;;;4998391;28;20179;-75
2021/09/20 11:35:15;;;;;;;2.87;1.47;;;15.90;99.90;;;;;;5011063;28;20234;-75
2021/09/20 11:37:40;;;;;;;2.70;1.60;;;15.90;99.90;;;;;;5011137;28;20167;-75
2021/09/20 11:40:09;;;;;;;5.67;1.77;;;15.90;99.90;;;;;;5011907;28;20175;-76
2021/09/20 11:42:38;;;;;;;4.03;1.60;;;15.90;99.90;;;;;;5010994;28;20556;-75
2021/09/20 11:47:39;;;;;;;3.33;1.20;;;16.00;99.90;;;;;;5115370;27;21193;-76
2021/09/20 11:52:29;;;;;;;2.70;1.30;;;16.10;99.90;;;;;;5101499;28;20918;-76
2021/09/20 11:54:55;;;;;;;1.63;1.33;;;16.10;99.90;;;;;;5092406;28;20292;-76
2021/09/20 11:57:23;;;;;;;1.97;1.20;;;16.00;99.90;;;;;;5106037;28;20259;-76
2021/09/20 11:59:49;;;;;;;2.27;1.40;;;16.00;99.90;;;;;;5061865;28;20181;-76
2021/09/20 12:02:48;;;;;;;2.10;1.30;;;16.00;99.90;;;;;;5069461;28;20613;-76
2021/09/20 12:05:15;;;;;;;1.87;1.50;;;16.00;99.90;;;;;;5081076;28;20213;-76
2021/09/20 12:07:49;;;;;;;3.10;1.43;;;16.00;99.90;;;;;;5094634;28;20172;-76
2021/09/20 12:10:15;;;;;;;1.30;1.10;;;16.10;99.90;;;;;;5075189;28;20318;-75
2021/09/20 12:12:41;;;;;;;2.70;1.30;;;16.10;99.90;;;;;;5062601;28;20260;-75
2021/09/20 12:15:13;;;;;;;1.87;1.27;;;16.10;99.90;;;;;;5094943;28;20261;-75
2021/09/20 12:17:47;;;;;;;1.63;1.30;;;16.20;99.90;;;;;;5075270;28;20596;-76
2021/09/20 12:20:13;;;;;;;3.20;1.30;;;16.20;99.90;;;;;;5082324;28;20185;-76
2021/09/20 12:22:42;;;;;;;3.93;1.30;;;16.20;99.90;;;;;;5076669;28;20173;-76
2021/09/20 12:25:38;;;;;;;2.13;1.30;;;16.10;99.90;;;;;;5080626;28;20259;-76
2021/09/20 12:28:04;;;;;;;2.40;1.20;;;16.10;99.90;;;;;;5053070;28;20675;-76
2021/09/20 12:30:31;;;;;;;1.77;1.40;;;16.20;99.90;;;;;;5079979;28;20249;-76
2021/09/20 12:33:11;;;;;;;3.23;1.50;;;16.20;99.90;;;;;;5078610;28;20374;-76
2021/09/20 12:35:38;;;;;;;1.70;1.20;;;16.20;99.90;;;;;;5082782;28;20257;-76
2021/09/20 12:38:21;;;;;;;1.57;1.23;;;16.20;99.90;;;;;;5081577;28;20226;-76
2021/09/20 12:40:48;;;;;;;2.40;1.07;;;16.20;99.90;;;;;;5104034;28;20184;-76
2021/09/20 12:43:21;;;;;;;2.30;1.00;;;16.20;99.90;;;;;;5075495;28;20168;-76
2021/09/20 12:45:46;;;;;;;2.80;1.23;;;16.00;99.90;;;;;;5096116;28;20199;-76
2021/09/20 12:48:13;;;;;;;1.23;1.00;;;16.00;99.90;;;;;;5100480;28;20180;-76
2021/09/20 12:50:43;;;;;;;2.20;1.20;;;16.00;99.90;;;;;;5069718;28;20699;-76